sensor_id;sensor_type;location;lat;lon;timestamp;pressure;altitude;pressure_sealevel;temperature;humidity
37792;BME280;29527;55.766;37.570;2023-12-04T00:00:37;98615.28;;;-4.72;66.52
37792;BME280;29527;55.766;37.570;2023-12-04T00:03:02;98619.69;;;-4.72;66.21
37792;BME280;29527;55.766;37.570;2023-12-04T00:05:28;98623.19;;;-4.73;66.31
37792;BME280;29527;55.766;37.570;2023-12-04T00:07:53;98625.75;;;-4.72;66.17
37792;BME280;29527;55.766;37.570;2023-12-04T00:10:20;98630.28;;;-4.77;66.28
37792;BME280;29527;55.766;37.570;2023-12-04T00:12:45;98629.63;;;-4.82;66.44
37792;BME280;29527;55.766;37.570;2023-12-04T00:15:11;98637.44;;;-4.82;65.93
37792;BME280;29527;55.766;37.570;2023-12-04T00:17:37;98636.03;;;-4.91;66.19
37792;BME280;29527;55.766;37.570;2023-12-04T00:20:07;98639.53;;;-4.92;66.43
37792;BME280;29527;55.766;37.570;2023-12-04T00:22:33;98646.53;;;-4.93;66.51
37792;BME280;29527;55.766;37.570;2023-12-04T00:24:59;98648.44;;;-4.98;66.60
37792;BME280;29527;55.766;37.570;2023-12-04T00:27:24;98647.66;;;-5.00;66.45
37792;BME280;29527;55.766;37.570;2023-12-04T00:29:53;98651.38;;;-5.07;66.79
37792;BME280;29527;55.766;37.570;2023-12-04T00:32:19;98655.06;;;-5.13;66.92
37792;BME280;29527;55.766;37.570;2023-12-04T00:34:44;98645.53;;;-5.14;67.27
37792;BME280;29527;55.766;37.570;2023-12-04T00:37:10;98662.59;;;-5.03;67.34
37792;BME280;29527;55.766;37.570;2023-12-04T00:39:35;98663.41;;;-5.03;66.57
37792;BME280;29527;55.766;37.570;2023-12-04T00:42:01;98666.91;;;-5.02;67.16
37792;BME280;29527;55.766;37.570;2023-12-04T00:44:27;98672.16;;;-5.04;66.27
37792;BME280;29527;55.766;37.570;2023-12-04T00:46:52;98662.66;;;-5.07;66.66
37792;BME280;29527;55.766;37.570;2023-12-04T00:49:18;98660.75;;;-5.01;66.96
37792;BME280;29527;55.766;37.570;2023-12-04T00:51:44;98664.09;;;-4.98;66.22
37792;BME280;29527;55.766;37.570;2023-12-04T00:54:10;98674.50;;;-4.96;66.77
37792;BME280;29527;55.766;37.570;2023-12-04T00:56:38;98684.88;;;-4.95;66.78
37792;BME280;29527;55.766;37.570;2023-12-04T00:59:05;98684.06;;;-4.97;66.46
37792;BME280;29527;55.766;37.570;2023-12-04T01:01:32;98690.16;;;-4.96;66.74
37792;BME280;29527;55.766;37.570;2023-12-04T01:03:58;98686.66;;;-4.95;66.37
37792;BME280;29527;55.766;37.570;2023-12-04T01:06:25;98691.97;;;-4.98;66.22
37792;BME280;29527;55.766;37.570;2023-12-04T01:08:52;98644.38;;;-5.30;66.58
37792;BME280;29527;55.766;37.570;2023-12-04T01:11:18;98695.59;;;-5.02;65.99
37792;BME280;29527;55.766;37.570;2023-12-04T01:13:47;98695.59;;;-5.02;66.32
37792;BME280;29527;55.766;37.570;2023-12-04T01:16:13;98714.78;;;-5.03;66.47
37792;BME280;29527;55.766;37.570;2023-12-04T01:18:40;98702.72;;;-5.08;66.38
37792;BME280;29527;55.766;37.570;2023-12-04T01:21:06;98716.91;;;-5.15;66.18
37792;BME280;29527;55.766;37.570;2023-12-04T01:23:32;98710.78;;;-5.14;66.39
37792;BME280;29527;55.766;37.570;2023-12-04T01:25:57;98712.69;;;-5.19;65.90
37792;BME280;29527;55.766;37.570;2023-12-04T01:28:23;98706.09;;;-5.29;66.42
37792;BME280;29527;55.766;37.570;2023-12-04T01:30:49;98713.97;;;-5.31;66.59
37792;BME280;29527;55.766;37.570;2023-12-04T01:33:14;98716.78;;;-5.37;66.30
37792;BME280;29527;55.766;37.570;2023-12-04T01:35:40;98725.75;;;-5.46;66.31
37792;BME280;29527;55.766;37.570;2023-12-04T01:38:05;98715.72;;;-5.58;66.52
37792;BME280;29527;55.766;37.570;2023-12-04T01:40:31;98721.13;;;-5.65;66.72
37792;BME280;29527;55.766;37.570;2023-12-04T01:42:57;98706.75;;;-5.77;66.57
37792;BME280;29527;55.766;37.570;2023-12-04T01:45:22;98713.56;;;-5.72;67.19
37792;BME280;29527;55.766;37.570;2023-12-04T01:47:48;98721.28;;;-5.69;66.82
37792;BME280;29527;55.766;37.570;2023-12-04T01:50:14;98719.78;;;-5.77;66.82
37792;BME280;29527;55.766;37.570;2023-12-04T01:52:40;98715.47;;;-5.78;67.17
37792;BME280;29527;55.766;37.570;2023-12-04T01:55:08;98727.84;;;-5.84;67.21
37792;BME280;29527;55.766;37.570;2023-12-04T01:57:35;98725.47;;;-5.92;66.64
37792;BME280;29527;55.766;37.570;2023-12-04T02:00:01;98727.22;;;-5.93;67.43
37792;BME280;29527;55.766;37.570;2023-12-04T02:02:28;98722.25;;;-6.00;67.39
37792;BME280;29527;55.766;37.570;2023-12-04T02:04:55;98687.34;;;-6.23;67.47
37792;BME280;29527;55.766;37.570;2023-12-04T02:07:22;98745.81;;;-6.02;67.00
37792;BME280;29527;55.766;37.570;2023-12-04T02:09:48;98738.66;;;-5.97;67.54
37792;BME280;29527;55.766;37.570;2023-12-04T02:12:14;98687.41;;;-6.25;67.29
37792;BME280;29527;55.766;37.570;2023-12-04T02:14:40;98736.84;;;-5.95;66.88
37792;BME280;29527;55.766;37.570;2023-12-04T02:17:06;98752.44;;;-5.93;67.49
37792;BME280;29527;55.766;37.570;2023-12-04T02:19:34;98734.19;;;-5.93;67.45
37792;BME280;29527;55.766;37.570;2023-12-04T02:22:00;98736.56;;;-5.85;66.95
37792;BME280;29527;55.766;37.570;2023-12-04T02:24:25;98755.25;;;-5.71;67.19
37792;BME280;29527;55.766;37.570;2023-12-04T02:27:10;98759.22;;;-5.59;66.62
37792;BME280;29527;55.766;37.570;2023-12-04T02:29:46;98735.13;;;-5.67;66.78
37792;BME280;29527;55.766;37.570;2023-12-04T02:32:15;98741.91;;;-5.62;66.93
37792;BME280;29527;55.766;37.570;2023-12-04T02:34:43;98750.25;;;-5.50;66.42
37792;BME280;29527;55.766;37.570;2023-12-04T02:37:11;98756.16;;;-5.45;65.81
37792;BME280;29527;55.766;37.570;2023-12-04T02:39:38;98760.50;;;-5.45;65.79
37792;BME280;29527;55.766;37.570;2023-12-04T02:42:04;98766.50;;;-5.42;65.63
37792;BME280;29527;55.766;37.570;2023-12-04T02:44:29;98710.91;;;-5.71;65.39
37792;BME280;29527;55.766;37.570;2023-12-04T02:46:55;98769.13;;;-5.43;65.35
37792;BME280;29527;55.766;37.570;2023-12-04T02:49:21;98760.50;;;-5.45;65.36
37792;BME280;29527;55.766;37.570;2023-12-04T02:51:46;98769.06;;;-5.40;65.47
37792;BME280;29527;55.766;37.570;2023-12-04T02:54:12;98765.50;;;-5.38;65.49
37792;BME280;29527;55.766;37.570;2023-12-04T02:56:38;98774.91;;;-5.34;65.02
37792;BME280;29527;55.766;37.570;2023-12-04T02:59:03;98778.31;;;-5.31;65.59
37792;BME280;29527;55.766;37.570;2023-12-04T03:01:29;98785.28;;;-5.30;64.88
37792;BME280;29527;55.766;37.570;2023-12-04T03:03:54;98791.34;;;-5.30;64.91
37792;BME280;29527;55.766;37.570;2023-12-04T03:06:20;98803.53;;;-5.30;64.80
37792;BME280;29527;55.766;37.570;2023-12-04T03:08:46;98798.47;;;-5.35;64.61
37792;BME280;29527;55.766;37.570;2023-12-04T03:11:11;98760.84;;;-5.56;64.56
37792;BME280;29527;55.766;37.570;2023-12-04T03:13:37;98812.31;;;-5.33;64.85
37792;BME280;29527;55.766;37.570;2023-12-04T03:16:02;98811.41;;;-5.32;64.88
37792;BME280;29527;55.766;37.570;2023-12-04T03:18:28;98818.31;;;-5.31;64.92
37792;BME280;29527;55.766;37.570;2023-12-04T03:20:54;98829.78;;;-5.35;64.71
37792;BME280;29527;55.766;37.570;2023-12-04T03:23:20;98834.13;;;-5.36;64.41
37792;BME280;29527;55.766;37.570;2023-12-04T03:25:45;98789.66;;;-5.59;64.76
37792;BME280;29527;55.766;37.570;2023-12-04T03:28:11;98796.53;;;-5.57;64.57
37792;BME280;29527;55.766;37.570;2023-12-04T03:30:38;98866.09;;;-5.29;64.10
37792;BME280;29527;55.766;37.570;2023-12-04T03:33:04;98862.69;;;-5.31;64.40
37792;BME280;29527;55.766;37.570;2023-12-04T03:35:29;98869.72;;;-5.33;64.32
37792;BME280;29527;55.766;37.570;2023-12-04T03:37:55;98878.34;;;-5.31;64.03
37792;BME280;29527;55.766;37.570;2023-12-04T03:40:20;98881.97;;;-5.37;64.17
37792;BME280;29527;55.766;37.570;2023-12-04T03:42:46;98895.09;;;-5.38;64.49
37792;BME280;29527;55.766;37.570;2023-12-04T03:45:11;98846.44;;;-5.69;64.38
37792;BME280;29527;55.766;37.570;2023-12-04T03:47:37;98907.00;;;-5.29;64.32
37792;BME280;29527;55.766;37.570;2023-12-04T03:50:03;98918.19;;;-5.26;64.38
37792;BME280;29527;55.766;37.570;2023-12-04T03:52:29;98861.63;;;-5.54;64.33
37792;BME280;29527;55.766;37.570;2023-12-04T03:54:54;98918.88;;;-5.19;64.50
37792;BME280;29527;55.766;37.570;2023-12-04T03:57:20;98931.13;;;-5.23;63.95
37792;BME280;29527;55.766;37.570;2023-12-04T03:59:46;98945.16;;;-5.25;64.11
37792;BME280;29527;55.766;37.570;2023-12-04T04:02:11;98935.63;;;-5.26;64.43
37792;BME280;29527;55.766;37.570;2023-12-04T04:04:37;98887.91;;;-5.60;64.03
37792;BME280;29527;55.766;37.570;2023-12-04T04:07:02;98955.69;;;-5.28;64.69
37792;BME280;29527;55.766;37.570;2023-12-04T04:09:28;98941.25;;;-5.40;64.40
37792;BME280;29527;55.766;37.570;2023-12-04T04:11:54;98954.81;;;-5.29;64.19
37792;BME280;29527;55.766;37.570;2023-12-04T04:14:19;98969.53;;;-5.26;64.18
37792;BME280;29527;55.766;37.570;2023-12-04T04:16:45;98971.25;;;-5.25;64.26
37792;BME280;29527;55.766;37.570;2023-12-04T04:19:10;98960.22;;;-5.35;64.44
37792;BME280;29527;55.766;37.570;2023-12-04T04:21:39;98972.09;;;-5.25;64.34
37792;BME280;29527;55.766;37.570;2023-12-04T04:24:06;98979.00;;;-5.24;64.04
37792;BME280;29527;55.766;37.570;2023-12-04T04:26:31;98987.84;;;-5.28;64.54
37792;BME280;29527;55.766;37.570;2023-12-04T04:28:58;98980.13;;;-5.33;64.77
37792;BME280;29527;55.766;37.570;2023-12-04T04:31:24;98979.97;;;-5.26;64.62
37792;BME280;29527;55.766;37.570;2023-12-04T04:33:50;98984.38;;;-5.28;64.42
37792;BME280;29527;55.766;37.570;2023-12-04T04:36:15;98984.28;;;-5.25;64.47
37792;BME280;29527;55.766;37.570;2023-12-04T04:38:41;98985.13;;;-5.25;64.37
37792;BME280;29527;55.766;37.570;2023-12-04T04:41:07;99003.38;;;-5.23;64.43
37792;BME280;29527;55.766;37.570;2023-12-04T04:43:32;98995.72;;;-5.29;64.74
37792;BME280;29527;55.766;37.570;2023-12-04T04:45:58;99003.56;;;-5.29;64.82
37792;BME280;29527;55.766;37.570;2023-12-04T04:48:23;98997.50;;;-5.31;64.83
37792;BME280;29527;55.766;37.570;2023-12-04T04:50:49;99012.22;;;-5.29;65.08
37792;BME280;29527;55.766;37.570;2023-12-04T04:53:14;99016.31;;;-5.20;64.53
37792;BME280;29527;55.766;37.570;2023-12-04T04:55:40;99010.19;;;-5.19;64.50
37792;BME280;29527;55.766;37.570;2023-12-04T04:58:06;98975.19;;;-5.42;64.86
37792;BME280;29527;55.766;37.570;2023-12-04T05:00:31;99012.72;;;-5.16;64.58
37792;BME280;29527;55.766;37.570;2023-12-04T05:02:57;99025.69;;;-5.13;64.33
37792;BME280;29527;55.766;37.570;2023-12-04T05:05:22;99019.47;;;-5.09;64.38
37792;BME280;29527;55.766;37.570;2023-12-04T05:07:48;99019.53;;;-5.10;64.24
37792;BME280;29527;55.766;37.570;2023-12-04T05:10:14;99030.00;;;-5.12;64.39
37792;BME280;29527;55.766;37.570;2023-12-04T05:12:39;99035.13;;;-5.09;64.63
37792;BME280;29527;55.766;37.570;2023-12-04T05:15:05;99034.47;;;-5.15;64.63
37792;BME280;29527;55.766;37.570;2023-12-04T05:17:31;99033.66;;;-5.17;64.83
37792;BME280;29527;55.766;37.570;2023-12-04T05:19:57;99043.09;;;-5.13;64.52
37792;BME280;29527;55.766;37.570;2023-12-04T05:22:22;99038.00;;;-5.18;64.66
37792;BME280;29527;55.766;37.570;2023-12-04T05:24:48;99046.75;;;-5.19;64.57
37792;BME280;29527;55.766;37.570;2023-12-04T05:27:14;99040.81;;;-5.24;64.70
37792;BME280;29527;55.766;37.570;2023-12-04T05:29:39;99054.75;;;-5.25;64.45
37792;BME280;29527;55.766;37.570;2023-12-04T05:32:05;99055.56;;;-5.23;65.01
37792;BME280;29527;55.766;37.570;2023-12-04T05:34:31;99052.75;;;-5.15;64.57
37792;BME280;29527;55.766;37.570;2023-12-04T05:36:56;99053.53;;;-5.13;64.71
37792;BME280;29527;55.766;37.570;2023-12-04T05:39:22;99056.28;;;-5.18;64.71
37792;BME280;29527;55.766;37.570;2023-12-04T05:41:47;99050.28;;;-5.22;64.81
37792;BME280;29527;55.766;37.570;2023-12-04T05:44:13;99070.84;;;-5.11;64.61
37792;BME280;29527;55.766;37.570;2023-12-04T05:46:39;99070.00;;;-5.11;64.42
37792;BME280;29527;55.766;37.570;2023-12-04T05:49:04;99075.25;;;-5.13;64.53
37792;BME280;29527;55.766;37.570;2023-12-04T05:51:30;99080.31;;;-5.07;64.25
37792;BME280;29527;55.766;37.570;2023-12-04T05:53:55;99075.03;;;-5.03;64.00
37792;BME280;29527;55.766;37.570;2023-12-04T05:56:21;99088.00;;;-5.02;64.54
37792;BME280;29527;55.766;37.570;2023-12-04T05:58:47;99087.19;;;-5.02;64.52
37792;BME280;29527;55.766;37.570;2023-12-04T06:01:14;99110.53;;;-4.98;64.67
37792;BME280;29527;55.766;37.570;2023-12-04T06:03:40;99110.28;;;-4.88;64.44
37792;BME280;29527;55.766;37.570;2023-12-04T06:06:06;99111.47;;;-5.00;63.66
37792;BME280;29527;55.766;37.570;2023-12-04T06:08:32;99116.84;;;-5.07;64.60
37792;BME280;29527;55.766;37.570;2023-12-04T06:10:57;99111.63;;;-5.07;64.90
37792;BME280;29527;55.766;37.570;2023-12-04T06:13:23;99121.94;;;-5.00;64.49
37792;BME280;29527;55.766;37.570;2023-12-04T06:15:48;99127.75;;;-4.91;64.22
37792;BME280;29527;55.766;37.570;2023-12-04T06:18:15;99134.63;;;-4.88;64.24
37792;BME280;29527;55.766;37.570;2023-12-04T06:20:40;99141.31;;;-4.78;63.75
37792;BME280;29527;55.766;37.570;2023-12-04T06:23:06;99135.41;;;-4.86;64.23
37792;BME280;29527;55.766;37.570;2023-12-04T06:25:32;99086.66;;;-5.15;63.73
37792;BME280;29527;55.766;37.570;2023-12-04T06:27:58;99150.25;;;-4.86;63.96
37792;BME280;29527;55.766;37.570;2023-12-04T06:30:24;99099.44;;;-5.06;63.40
37792;BME280;29527;55.766;37.570;2023-12-04T06:32:50;99135.50;;;-4.89;63.23
37792;BME280;29527;55.766;37.570;2023-12-04T06:35:16;99155.19;;;-4.77;63.30
37792;BME280;29527;55.766;37.570;2023-12-04T06:37:43;99153.56;;;-4.80;63.36
37792;BME280;29527;55.766;37.570;2023-12-04T06:40:09;99168.41;;;-4.82;62.52
37792;BME280;29527;55.766;37.570;2023-12-04T06:42:37;99148.66;;;-4.92;62.92
37792;BME280;29527;55.766;37.570;2023-12-04T06:45:03;99172.75;;;-4.82;62.45
37792;BME280;29527;55.766;37.570;2023-12-04T06:47:33;99165.91;;;-4.86;62.93
37792;BME280;29527;55.766;37.570;2023-12-04T06:49:59;99164.28;;;-4.91;62.73
37792;BME280;29527;55.766;37.570;2023-12-04T06:52:25;99124.84;;;-5.11;63.10
37792;BME280;29527;55.766;37.570;2023-12-04T06:54:51;99140.34;;;-5.07;62.43
37792;BME280;29527;55.766;37.570;2023-12-04T06:57:16;99171.16;;;-4.88;62.86
37792;BME280;29527;55.766;37.570;2023-12-04T06:59:42;99191.94;;;-4.83;62.71
37792;BME280;29527;55.766;37.570;2023-12-04T07:02:08;99184.00;;;-4.79;62.49
37792;BME280;29527;55.766;37.570;2023-12-04T07:04:34;99183.00;;;-4.74;62.43
37792;BME280;29527;55.766;37.570;2023-12-04T07:06:59;99190.13;;;-4.81;62.14
37792;BME280;29527;55.766;37.570;2023-12-04T07:09:31;99188.34;;;-4.79;63.05
37792;BME280;29527;55.766;37.570;2023-12-04T07:11:57;99207.41;;;-4.76;62.81
37792;BME280;29527;55.766;37.570;2023-12-04T07:14:23;99206.41;;;-4.71;62.81
37792;BME280;29527;55.766;37.570;2023-12-04T07:16:48;99211.56;;;-4.68;62.56
37792;BME280;29527;55.766;37.570;2023-12-04T07:19:14;99198.56;;;-4.70;62.32
37792;BME280;29527;55.766;37.570;2023-12-04T07:21:41;99202.72;;;-4.64;62.25
37792;BME280;29527;55.766;37.570;2023-12-04T07:24:07;99212.16;;;-4.58;62.08
37792;BME280;29527;55.766;37.570;2023-12-04T07:26:36;99219.09;;;-4.57;62.30
37792;BME280;29527;55.766;37.570;2023-12-04T07:29:02;99221.56;;;-4.53;62.24
37792;BME280;29527;55.766;37.570;2023-12-04T07:31:28;99221.38;;;-4.45;62.14
37792;BME280;29527;55.766;37.570;2023-12-04T07:33:55;99226.53;;;-4.43;61.72
37792;BME280;29527;55.766;37.570;2023-12-04T07:36:21;99217.25;;;-4.54;62.07
37792;BME280;29527;55.766;37.570;2023-12-04T07:38:47;99244.03;;;-4.47;61.71
37792;BME280;29527;55.766;37.570;2023-12-04T07:41:14;99205.50;;;-4.70;61.75
37792;BME280;29527;55.766;37.570;2023-12-04T07:43:40;99246.59;;;-4.44;61.75
37792;BME280;29527;55.766;37.570;2023-12-04T07:46:06;99239.56;;;-4.42;62.08
37792;BME280;29527;55.766;37.570;2023-12-04T07:48:31;99255.16;;;-4.39;61.80
37792;BME280;29527;55.766;37.570;2023-12-04T07:50:57;99254.28;;;-4.39;61.80
37792;BME280;29527;55.766;37.570;2023-12-04T07:53:23;99260.28;;;-4.36;61.40
37792;BME280;29527;55.766;37.570;2023-12-04T07:55:49;99263.97;;;-4.43;61.60
37792;BME280;29527;55.766;37.570;2023-12-04T07:58:17;99268.34;;;-4.43;61.68
37792;BME280;29527;55.766;37.570;2023-12-04T08:00:43;99270.13;;;-4.45;61.55
37792;BME280;29527;55.766;37.570;2023-12-04T08:03:09;99270.31;;;-4.52;61.87
37792;BME280;29527;55.766;37.570;2023-12-04T08:05:35;99277.38;;;-4.55;61.29
37792;BME280;29527;55.766;37.570;2023-12-04T08:08:00;99278.97;;;-4.50;61.24
37792;BME280;29527;55.766;37.570;2023-12-04T08:10:26;99276.91;;;-4.38;60.94
37792;BME280;29527;55.766;37.570;2023-12-04T08:12:52;99281.47;;;-4.45;61.69
37792;BME280;29527;55.766;37.570;2023-12-04T08:15:17;99286.41;;;-4.36;60.76
37792;BME280;29527;55.766;37.570;2023-12-04T08:17:43;99277.47;;;-4.27;60.81
37792;BME280;29527;55.766;37.570;2023-12-04T08:20:09;99286.06;;;-4.23;60.48
37792;BME280;29527;55.766;37.570;2023-12-04T08:22:42;99285.13;;;-4.21;60.50
37792;BME280;29527;55.766;37.570;2023-12-04T08:25:08;99285.13;;;-4.21;60.30
37792;BME280;29527;55.766;37.570;2023-12-04T08:27:35;99284.94;;;-4.14;60.85
37792;BME280;29527;55.766;37.570;2023-12-04T08:30:00;99282.38;;;-4.16;60.87
37792;BME280;29527;55.766;37.570;2023-12-04T08:32:28;99290.94;;;-4.11;60.47
37792;BME280;29527;55.766;37.570;2023-12-04T08:34:54;99304.81;;;-4.07;60.35
37792;BME280;29527;55.766;37.570;2023-12-04T08:37:19;99291.78;;;-4.10;60.10
37792;BME280;29527;55.766;37.570;2023-12-04T08:39:45;99305.59;;;-4.05;60.49
37792;BME280;29527;55.766;37.570;2023-12-04T08:42:12;99299.41;;;-4.03;60.55
37792;BME280;29527;55.766;37.570;2023-12-04T08:44:38;99296.78;;;-4.01;60.85
37792;BME280;29527;55.766;37.570;2023-12-04T08:47:05;99308.84;;;-3.97;60.67
37792;BME280;29527;55.766;37.570;2023-12-04T08:49:30;99282.31;;;-4.14;60.46
37792;BME280;29527;55.766;37.570;2023-12-04T08:51:57;99303.72;;;-4.00;60.76
37792;BME280;29527;55.766;37.570;2023-12-04T08:54:24;99312.81;;;-3.83;59.79
37792;BME280;29527;55.766;37.570;2023-12-04T08:56:50;99321.47;;;-3.81;59.96
37792;BME280;29527;55.766;37.570;2023-12-04T08:59:15;99316.06;;;-3.75;60.54
37792;BME280;29527;55.766;37.570;2023-12-04T09:01:42;99322.72;;;-3.65;60.31
37792;BME280;29527;55.766;37.570;2023-12-04T09:04:09;99317.25;;;-3.57;59.63
37792;BME280;29527;55.766;37.570;2023-12-04T09:06:35;99309.38;;;-3.55;59.20
37792;BME280;29527;55.766;37.570;2023-12-04T09:09:01;99274.44;;;-3.83;59.18
37792;BME280;29527;55.766;37.570;2023-12-04T09:11:28;99278.81;;;-3.83;59.63
37792;BME280;29527;55.766;37.570;2023-12-04T09:13:54;99334.47;;;-3.50;59.93
37792;BME280;29527;55.766;37.570;2023-12-04T09:16:20;99331.72;;;-3.45;59.74
37792;BME280;29527;55.766;37.570;2023-12-04T09:18:45;99333.34;;;-3.41;58.92
37792;BME280;29527;55.766;37.570;2023-12-04T09:21:12;99340.59;;;-3.21;59.33
37792;BME280;29527;55.766;37.570;2023-12-04T09:23:37;99330.47;;;-3.05;58.58
37792;BME280;29527;55.766;37.570;2023-12-04T09:26:03;99327.94;;;-2.81;58.21
37792;BME280;29527;55.766;37.570;2023-12-04T09:28:29;99329.69;;;-2.81;57.96
37792;BME280;29527;55.766;37.570;2023-12-04T09:30:54;99329.69;;;-2.81;57.90
37792;BME280;29527;55.766;37.570;2023-12-04T09:33:20;99346.28;;;-2.81;57.31
37792;BME280;29527;55.766;37.570;2023-12-04T09:35:46;99329.34;;;-2.97;57.45
37792;BME280;29527;55.766;37.570;2023-12-04T09:38:11;99334.19;;;-3.12;57.92
37792;BME280;29527;55.766;37.570;2023-12-04T09:40:37;99327.81;;;-3.32;58.11
37792;BME280;29527;55.766;37.570;2023-12-04T09:43:03;99355.63;;;-3.27;58.25
37792;BME280;29527;55.766;37.570;2023-12-04T09:45:31;99341.81;;;-3.33;58.26
37792;BME280;29527;55.766;37.570;2023-12-04T09:47:58;99358.94;;;-3.22;58.52
37792;BME280;29527;55.766;37.570;2023-12-04T09:50:24;99358.75;;;-3.16;58.43
37792;BME280;29527;55.766;37.570;2023-12-04T09:52:50;99346.56;;;-3.17;57.58
37792;BME280;29527;55.766;37.570;2023-12-04T09:55:16;99361.19;;;-3.10;57.58
37792;BME280;29527;55.766;37.570;2023-12-04T09:57:44;99373.28;;;-3.06;57.60
37792;BME280;29527;55.766;37.570;2023-12-04T10:00:12;99321.66;;;-3.57;57.83
37792;BME280;29527;55.766;37.570;2023-12-04T10:02:39;99342.91;;;-3.68;59.00
37792;BME280;29527;55.766;37.570;2023-12-04T10:05:06;99377.41;;;-3.55;59.08
37792;BME280;29527;55.766;37.570;2023-12-04T10:07:32;99380.72;;;-3.49;58.91
37792;BME280;29527;55.766;37.570;2023-12-04T10:09:57;99391.22;;;-3.50;58.51
37792;BME280;29527;55.766;37.570;2023-12-04T10:12:23;99383.31;;;-3.49;58.11
37792;BME280;29527;55.766;37.570;2023-12-04T10:15:07;99392.69;;;-3.41;59.02
37792;BME280;29527;55.766;37.570;2023-12-04T10:17:34;99400.91;;;-3.54;58.45
37792;BME280;29527;55.766;37.570;2023-12-04T10:20:13;99413.25;;;-3.57;58.99
37792;BME280;29527;55.766;37.570;2023-12-04T10:22:59;99410.53;;;-3.54;59.04
37792;BME280;29527;55.766;37.570;2023-12-04T10:25:28;99405.53;;;-3.64;58.98
37792;BME280;29527;55.766;37.570;2023-12-04T10:28:15;99403.50;;;-3.54;59.19
37792;BME280;29527;55.766;37.570;2023-12-04T10:30:41;99415.09;;;-3.63;58.75
37792;BME280;29527;55.766;37.570;2023-12-04T10:33:08;99416.97;;;-3.66;59.38
37792;BME280;29527;55.766;37.570;2023-12-04T10:35:35;99417.72;;;-3.63;58.91
37792;BME280;29527;55.766;37.570;2023-12-04T10:38:02;99420.44;;;-3.66;58.75
37792;BME280;29527;55.766;37.570;2023-12-04T10:40:31;99432.69;;;-3.68;58.55
37792;BME280;29527;55.766;37.570;2023-12-04T10:45:42;99422.69;;;-3.83;59.16
37792;BME280;29527;55.766;37.570;2023-12-04T10:48:10;99445.03;;;-3.71;58.81
37792;BME280;29527;55.766;37.570;2023-12-04T10:50:37;99447.69;;;-3.73;58.57
37792;BME280;29527;55.766;37.570;2023-12-04T10:53:11;99443.16;;;-3.68;58.77
37792;BME280;29527;55.766;37.570;2023-12-04T10:55:38;99451.38;;;-3.80;58.88
37792;BME280;29527;55.766;37.570;2023-12-04T10:58:10;99453.00;;;-3.76;59.69
37792;BME280;29527;55.766;37.570;2023-12-04T11:00:38;99450.28;;;-3.71;59.34
37792;BME280;29527;55.766;37.570;2023-12-04T11:03:08;99444.06;;;-3.69;58.49
37792;BME280;29527;55.766;37.570;2023-12-04T11:05:39;99439.53;;;-3.62;58.70
37792;BME280;29527;55.766;37.570;2023-12-04T11:08:07;99454.31;;;-3.61;59.16
37792;BME280;29527;55.766;37.570;2023-12-04T11:10:38;99448.16;;;-3.58;58.75
37792;BME280;29527;55.766;37.570;2023-12-04T11:13:17;99458.72;;;-3.62;58.98
37792;BME280;29527;55.766;37.570;2023-12-04T11:15:47;99458.72;;;-3.62;58.68
37792;BME280;29527;55.766;37.570;2023-12-04T11:18:16;99457.50;;;-3.81;59.26
37792;BME280;29527;55.766;37.570;2023-12-04T11:20:58;99459.59;;;-3.94;59.64
37792;BME280;29527;55.766;37.570;2023-12-04T11:23:25;99474.34;;;-3.92;59.27
37792;BME280;29527;55.766;37.570;2023-12-04T11:25:51;99460.34;;;-3.91;59.42
37792;BME280;29527;55.766;37.570;2023-12-04T11:28:19;99479.03;;;-4.05;59.12
37792;BME280;29527;55.766;37.570;2023-12-04T11:30:45;99474.59;;;-4.01;59.71
37792;BME280;29527;55.766;37.570;2023-12-04T11:33:11;99472.00;;;-4.03;59.75
37792;BME280;29527;55.766;37.570;2023-12-04T11:35:38;99486.78;;;-4.01;59.22
37792;BME280;29527;55.766;37.570;2023-12-04T11:38:07;99490.38;;;-4.04;59.81
37792;BME280;29527;55.766;37.570;2023-12-04T11:40:35;99489.47;;;-4.03;59.26
37792;BME280;29527;55.766;37.570;2023-12-04T11:43:21;99497.31;;;-4.03;60.39
37792;BME280;29527;55.766;37.570;2023-12-04T11:45:47;99489.88;;;-3.85;60.20
37792;BME280;29527;55.766;37.570;2023-12-04T11:48:14;99498.03;;;-3.98;58.93
37792;BME280;29527;55.766;37.570;2023-12-04T11:50:39;99481.84;;;-4.12;59.73
37792;BME280;29527;55.766;37.570;2023-12-04T11:53:06;99487.94;;;-4.12;59.63
37792;BME280;29527;55.766;37.570;2023-12-04T11:55:35;99493.13;;;-4.10;59.96
37792;BME280;29527;55.766;37.570;2023-12-04T11:58:09;99503.56;;;-4.09;59.50
37792;BME280;29527;55.766;37.570;2023-12-04T12:00:36;99474.59;;;-4.36;59.58
37792;BME280;29527;55.766;37.570;2023-12-04T12:03:07;99508.94;;;-4.15;59.72
37792;BME280;29527;55.766;37.570;2023-12-04T12:05:36;99493.41;;;-4.21;60.04
37792;BME280;29527;55.766;37.570;2023-12-04T12:08:05;99476.31;;;-4.35;58.98
37792;BME280;29527;55.766;37.570;2023-12-04T12:10:32;99533.59;;;-4.25;59.31
37792;BME280;29527;55.766;37.570;2023-12-04T12:12:58;99483.03;;;-4.61;59.58
37792;BME280;29527;55.766;37.570;2023-12-04T12:15:24;99502.13;;;-4.57;60.20
37792;BME280;29527;55.766;37.570;2023-12-04T12:17:50;99526.16;;;-4.42;60.06
37792;BME280;29527;55.766;37.570;2023-12-04T12:20:19;99526.22;;;-4.45;60.51
37792;BME280;29527;55.766;37.570;2023-12-04T12:22:47;99533.16;;;-4.43;60.54
37792;BME280;29527;55.766;37.570;2023-12-04T12:25:13;99529.63;;;-4.42;60.12
37792;BME280;29527;55.766;37.570;2023-12-04T12:27:39;99534.03;;;-4.44;60.27
37792;BME280;29527;55.766;37.570;2023-12-04T12:30:06;99540.03;;;-4.40;59.97
37792;BME280;29527;55.766;37.570;2023-12-04T12:32:33;99547.81;;;-4.37;60.50
37792;BME280;29527;55.766;37.570;2023-12-04T12:34:59;99546.00;;;-4.34;60.23
37792;BME280;29527;55.766;37.570;2023-12-04T12:37:25;99503.03;;;-4.58;60.38
37792;BME280;29527;55.766;37.570;2023-12-04T12:39:51;99550.28;;;-4.31;59.89
37792;BME280;29527;55.766;37.570;2023-12-04T12:42:28;99556.28;;;-4.27;60.19
37792;BME280;29527;55.766;37.570;2023-12-04T12:44:55;99560.78;;;-4.34;59.84
37792;BME280;29527;55.766;37.570;2023-12-04T12:47:22;99546.84;;;-4.33;60.92
37792;BME280;29527;55.766;37.570;2023-12-04T12:49:48;99535.88;;;-4.49;60.12